sensor_id;sensor_type;location;lat;lon;timestamp;P1;durP1;ratioP1;P2;durP2;ratioP2
64615;SDS011;51027;42.162;24.754;2022-08-07T00:00:47;18.73;;;10.10;;
64615;SDS011;51027;42.162;24.754;2022-08-07T00:03:13;18.67;;;10.18;;
64615;SDS011;51027;42.162;24.754;2022-08-07T00:05:39;18.77;;;9.82;;
64615;SDS011;51027;42.162;24.754;2022-08-07T00:08:04;19.95;;;10.30;;
64615;SDS011;51027;42.162;24.754;2022-08-07T00:10:30;19.08;;;9.57;;
64615;SDS011;51027;42.162;24.754;2022-08-07T00:13:00;19.90;;;10.70;;
64615;SDS011;51027;42.162;24.754;2022-08-07T00:15:29;18.73;;;10.20;;
64615;SDS011;51027;42.162;24.754;2022-08-07T00:17:55;19.15;;;10.30;;
64615;SDS011;51027;42.162;24.754;2022-08-07T00:20:21;18.85;;;10.15;;
64615;SDS011;51027;42.162;24.754;2022-08-07T00:22:48;18.63;;;9.63;;
64615;SDS011;51027;42.162;24.754;2022-08-07T00:25:13;18.20;;;9.43;;
64615;SDS011;51027;42.162;24.754;2022-08-07T00:27:39;19.27;;;10.35;;
64615;SDS011;51027;42.162;24.754;2022-08-07T00:30:05;20.10;;;11.00;;
64615;SDS011;51027;42.162;24.754;2022-08-07T00:32:31;19.02;;;10.23;;
64615;SDS011;51027;42.162;24.754;2022-08-07T00:34:57;19.98;;;9.82;;
64615;SDS011;51027;42.162;24.754;2022-08-07T00:37:23;20.75;;;9.77;;
64615;SDS011;51027;42.162;24.754;2022-08-07T00:39:50;19.15;;;9.38;;
64615;SDS011;51027;42.162;24.754;2022-08-07T00:42:26;20.20;;;9.52;;
64615;SDS011;51027;42.162;24.754;2022-08-07T00:44:52;17.42;;;9.40;;
64615;SDS011;51027;42.162;24.754;2022-08-07T00:47:17;17.08;;;9.13;;
64615;SDS011;51027;42.162;24.754;2022-08-07T00:49:46;18.63;;;9.07;;
64615;SDS011;51027;42.162;24.754;2022-08-07T00:52:12;18.80;;;9.70;;
64615;SDS011;51027;42.162;24.754;2022-08-07T00:54:37;16.50;;;8.82;;
64615;SDS011;51027;42.162;24.754;2022-08-07T00:57:03;19.50;;;8.98;;
64615;SDS011;51027;42.162;24.754;2022-08-07T00:59:30;16.90;;;8.65;;
64615;SDS011;51027;42.162;24.754;2022-08-07T01:01:55;17.35;;;9.10;;
64615;SDS011;51027;42.162;24.754;2022-08-07T01:05:22;18.95;;;9.18;;
64615;SDS011;51027;42.162;24.754;2022-08-07T01:07:25;18.08;;;9.68;;
64615;SDS011;51027;42.162;24.754;2022-08-07T01:09:52;19.30;;;10.05;;
64615;SDS011;51027;42.162;24.754;2022-08-07T01:12:17;18.05;;;9.23;;
64615;SDS011;51027;42.162;24.754;2022-08-07T01:14:44;19.67;;;9.50;;
64615;SDS011;51027;42.162;24.754;2022-08-07T01:17:10;18.27;;;9.48;;
64615;SDS011;51027;42.162;24.754;2022-08-07T01:19:37;19.00;;;10.07;;
64615;SDS011;51027;42.162;24.754;2022-08-07T01:22:04;20.13;;;10.95;;
64615;SDS011;51027;42.162;24.754;2022-08-07T01:24:30;20.15;;;11.45;;
64615;SDS011;51027;42.162;24.754;2022-08-07T01:26:56;21.00;;;11.32;;
64615;SDS011;51027;42.162;24.754;2022-08-07T01:29:25;21.60;;;10.93;;
64615;SDS011;51027;42.162;24.754;2022-08-07T01:31:51;19.90;;;11.35;;
64615;SDS011;51027;42.162;24.754;2022-08-07T01:34:46;21.25;;;11.50;;
64615;SDS011;51027;42.162;24.754;2022-08-07T01:37:13;20.35;;;10.70;;
64615;SDS011;51027;42.162;24.754;2022-08-07T01:39:51;18.42;;;10.50;;
64615;SDS011;51027;42.162;24.754;2022-08-07T01:42:24;19.83;;;10.85;;
64615;SDS011;51027;42.162;24.754;2022-08-07T01:44:52;21.83;;;11.05;;
64615;SDS011;51027;42.162;24.754;2022-08-07T01:47:22;20.83;;;11.50;;
64615;SDS011;51027;42.162;24.754;2022-08-07T01:49:48;19.58;;;10.90;;
64615;SDS011;51027;42.162;24.754;2022-08-07T01:52:15;22.38;;;11.18;;
64615;SDS011;51027;42.162;24.754;2022-08-07T01:54:42;20.77;;;11.07;;
64615;SDS011;51027;42.162;24.754;2022-08-07T01:57:09;19.38;;;10.27;;
64615;SDS011;51027;42.162;24.754;2022-08-07T01:59:41;19.88;;;10.27;;
64615;SDS011;51027;42.162;24.754;2022-08-07T02:02:12;19.50;;;10.98;;
64615;SDS011;51027;42.162;24.754;2022-08-07T02:07:58;19.75;;;10.32;;
64615;SDS011;51027;42.162;24.754;2022-08-07T02:10:32;20.05;;;10.00;;
64615;SDS011;51027;42.162;24.754;2022-08-07T02:13:00;18.50;;;9.95;;
64615;SDS011;51027;42.162;24.754;2022-08-07T02:15:28;18.80;;;11.05;;
64615;SDS011;51027;42.162;24.754;2022-08-07T02:17:55;20.05;;;11.07;;
64615;SDS011;51027;42.162;24.754;2022-08-07T02:20:44;20.20;;;11.13;;
64615;SDS011;51027;42.162;24.754;2022-08-07T02:23:09;20.00;;;11.13;;
64615;SDS011;51027;42.162;24.754;2022-08-07T02:25:38;21.75;;;11.50;;
64615;SDS011;51027;42.162;24.754;2022-08-07T02:28:14;20.55;;;10.25;;
64615;SDS011;51027;42.162;24.754;2022-08-07T02:30:49;20.80;;;11.52;;
64615;SDS011;51027;42.162;24.754;2022-08-07T02:43:22;21.45;;;10.73;;
64615;SDS011;51027;42.162;24.754;2022-08-07T02:45:57;20.35;;;10.13;;
64615;SDS011;51027;42.162;24.754;2022-08-07T02:48:27;21.75;;;10.77;;
64615;SDS011;51027;42.162;24.754;2022-08-07T02:50:59;20.77;;;9.98;;
64615;SDS011;51027;42.162;24.754;2022-08-07T02:53:31;20.88;;;10.35;;
64615;SDS011;51027;42.162;24.754;2022-08-07T02:56:00;18.63;;;9.55;;
64615;SDS011;51027;42.162;24.754;2022-08-07T02:58:28;18.35;;;9.45;;
64615;SDS011;51027;42.162;24.754;2022-08-07T03:00:56;17.90;;;9.98;;
64615;SDS011;51027;42.162;24.754;2022-08-07T03:03:36;18.10;;;9.23;;
64615;SDS011;51027;42.162;24.754;2022-08-07T03:06:03;19.38;;;10.07;;
64615;SDS011;51027;42.162;24.754;2022-08-07T03:08:29;21.65;;;10.60;;
64615;SDS011;51027;42.162;24.754;2022-08-07T03:10:56;21.35;;;10.60;;
64615;SDS011;51027;42.162;24.754;2022-08-07T03:13:23;20.15;;;10.18;;
64615;SDS011;51027;42.162;24.754;2022-08-07T03:15:49;19.65;;;9.80;;
64615;SDS011;51027;42.162;24.754;2022-08-07T03:18:16;19.15;;;9.98;;
64615;SDS011;51027;42.162;24.754;2022-08-07T03:20:46;18.65;;;9.70;;
64615;SDS011;51027;42.162;24.754;2022-08-07T03:23:12;18.90;;;9.00;;
64615;SDS011;51027;42.162;24.754;2022-08-07T03:25:41;17.55;;;8.95;;
64615;SDS011;51027;42.162;24.754;2022-08-07T03:28:11;19.83;;;9.68;;
64615;SDS011;51027;42.162;24.754;2022-08-07T03:30:43;19.75;;;9.18;;
64615;SDS011;51027;42.162;24.754;2022-08-07T03:33:13;18.50;;;9.27;;
64615;SDS011;51027;42.162;24.754;2022-08-07T03:35:41;18.27;;;9.90;;
64615;SDS011;51027;42.162;24.754;2022-08-07T03:38:07;21.70;;;9.98;;
64615;SDS011;51027;42.162;24.754;2022-08-07T03:40:49;19.35;;;10.10;;
64615;SDS011;51027;42.162;24.754;2022-08-07T03:43:15;20.60;;;10.68;;
64615;SDS011;51027;42.162;24.754;2022-08-07T03:45:41;18.95;;;9.85;;
64615;SDS011;51027;42.162;24.754;2022-08-07T03:48:08;17.88;;;9.90;;
64615;SDS011;51027;42.162;24.754;2022-08-07T03:50:33;19.00;;;10.40;;
64615;SDS011;51027;42.162;24.754;2022-08-07T03:53:03;20.80;;;10.02;;
64615;SDS011;51027;42.162;24.754;2022-08-07T03:55:30;20.33;;;9.48;;
64615;SDS011;51027;42.162;24.754;2022-08-07T03:57:56;19.65;;;10.32;;
64615;SDS011;51027;42.162;24.754;2022-08-07T04:00:23;19.55;;;9.98;;
64615;SDS011;51027;42.162;24.754;2022-08-07T04:02:50;19.10;;;10.38;;
64615;SDS011;51027;42.162;24.754;2022-08-07T04:05:18;20.20;;;11.20;;
64615;SDS011;51027;42.162;24.754;2022-08-07T04:10:20;18.02;;;9.23;;
64615;SDS011;51027;42.162;24.754;2022-08-07T04:12:46;19.60;;;10.02;;
64615;SDS011;51027;42.162;24.754;2022-08-07T04:15:13;18.27;;;10.02;;
64615;SDS011;51027;42.162;24.754;2022-08-07T04:17:41;20.85;;;10.30;;
64615;SDS011;51027;42.162;24.754;2022-08-07T04:20:09;21.92;;;10.15;;
64615;SDS011;51027;42.162;24.754;2022-08-07T04:22:36;24.48;;;10.65;;
64615;SDS011;51027;42.162;24.754;2022-08-07T04:25:04;19.02;;;9.77;;
64615;SDS011;51027;42.162;24.754;2022-08-07T04:27:30;18.08;;;9.70;;
64615;SDS011;51027;42.162;24.754;2022-08-07T04:29:58;17.90;;;9.18;;
64615;SDS011;51027;42.162;24.754;2022-08-07T04:32:23;17.70;;;9.77;;
64615;SDS011;51027;42.162;24.754;2022-08-07T04:34:49;20.17;;;11.07;;
64615;SDS011;51027;42.162;24.754;2022-08-07T04:37:19;19.95;;;9.32;;
64615;SDS011;51027;42.162;24.754;2022-08-07T04:39:45;19.20;;;9.52;;
64615;SDS011;51027;42.162;24.754;2022-08-07T04:42:20;18.50;;;9.15;;
64615;SDS011;51027;42.162;24.754;2022-08-07T04:44:45;19.20;;;9.18;;
64615;SDS011;51027;42.162;24.754;2022-08-07T04:55:54;19.90;;;9.95;;
64615;SDS011;51027;42.162;24.754;2022-08-07T05:14:18;19.65;;;10.13;;
64615;SDS011;51027;42.162;24.754;2022-08-07T05:16:53;21.02;;;11.27;;
64615;SDS011;51027;42.162;24.754;2022-08-07T05:19:30;20.88;;;10.82;;
64615;SDS011;51027;42.162;24.754;2022-08-07T05:22:04;19.45;;;9.85;;
64615;SDS011;51027;42.162;24.754;2022-08-07T05:24:50;21.35;;;11.02;;
64615;SDS011;51027;42.162;24.754;2022-08-07T05:27:19;21.33;;;10.95;;
64615;SDS011;51027;42.162;24.754;2022-08-07T05:29:49;21.40;;;11.25;;
64615;SDS011;51027;42.162;24.754;2022-08-07T05:32:30;18.70;;;10.93;;
64615;SDS011;51027;42.162;24.754;2022-08-07T05:38:43;20.90;;;10.60;;
64615;SDS011;51027;42.162;24.754;2022-08-07T05:45:01;21.40;;;11.48;;
64615;SDS011;51027;42.162;24.754;2022-08-07T05:47:33;21.75;;;12.20;;
64615;SDS011;51027;42.162;24.754;2022-08-07T05:50:00;21.55;;;11.10;;
64615;SDS011;51027;42.162;24.754;2022-08-07T05:52:30;22.05;;;11.40;;
64615;SDS011;51027;42.162;24.754;2022-08-07T05:54:56;19.63;;;11.00;;
64615;SDS011;51027;42.162;24.754;2022-08-07T05:57:25;20.58;;;11.00;;
64615;SDS011;51027;42.162;24.754;2022-08-07T05:59:52;19.42;;;11.57;;
64615;SDS011;51027;42.162;24.754;2022-08-07T06:02:19;21.70;;;12.27;;
64615;SDS011;51027;42.162;24.754;2022-08-07T06:04:51;20.42;;;12.32;;
64615;SDS011;51027;42.162;24.754;2022-08-07T06:07:21;22.50;;;11.77;;
64615;SDS011;51027;42.162;24.754;2022-08-07T06:15:19;28.05;;;11.70;;
64615;SDS011;51027;42.162;24.754;2022-08-07T06:17:46;21.48;;;12.25;;
64615;SDS011;51027;42.162;24.754;2022-08-07T06:20:13;21.00;;;11.65;;
64615;SDS011;51027;42.162;24.754;2022-08-07T06:22:51;20.13;;;12.40;;
64615;SDS011;51027;42.162;24.754;2022-08-07T06:25:21;21.05;;;12.32;;
64615;SDS011;51027;42.162;24.754;2022-08-07T06:31:18;22.45;;;10.95;;
64615;SDS011;51027;42.162;24.754;2022-08-07T06:40:49;21.17;;;11.07;;
64615;SDS011;51027;42.162;24.754;2022-08-07T06:43:50;19.30;;;9.98;;
64615;SDS011;51027;42.162;24.754;2022-08-07T06:46:10;22.40;;;10.23;;
64615;SDS011;51027;42.162;24.754;2022-08-07T07:37:50;17.75;;;8.57;;
64615;SDS011;51027;42.162;24.754;2022-08-07T07:40:37;15.95;;;8.20;;
64615;SDS011;51027;42.162;24.754;2022-08-07T07:44:07;17.70;;;8.70;;
64615;SDS011;51027;42.162;24.754;2022-08-07T07:47:06;17.63;;;8.23;;
64615;SDS011;51027;42.162;24.754;2022-08-07T07:50:01;17.75;;;8.55;;
64615;SDS011;51027;42.162;24.754;2022-08-07T07:52:28;18.30;;;8.63;;
64615;SDS011;51027;42.162;24.754;2022-08-07T07:54:54;16.83;;;8.13;;
64615;SDS011;51027;42.162;24.754;2022-08-07T07:57:21;16.23;;;8.50;;
64615;SDS011;51027;42.162;24.754;2022-08-07T07:59:48;16.63;;;8.18;;
64615;SDS011;51027;42.162;24.754;2022-08-07T08:02:15;16.00;;;8.88;;
64615;SDS011;51027;42.162;24.754;2022-08-07T08:04:44;18.75;;;9.02;;
64615;SDS011;51027;42.162;24.754;2022-08-07T08:07:10;16.60;;;8.13;;
64615;SDS011;51027;42.162;24.754;2022-08-07T08:09:37;18.20;;;9.50;;
64615;SDS011;51027;42.162;24.754;2022-08-07T08:12:05;17.30;;;8.50;;
64615;SDS011;51027;42.162;24.754;2022-08-07T08:14:34;15.85;;;8.60;;
64615;SDS011;51027;42.162;24.754;2022-08-07T08:19:27;18.70;;;9.45;;
64615;SDS011;51027;42.162;24.754;2022-08-07T08:21:56;16.98;;;8.82;;
64615;SDS011;51027;42.162;24.754;2022-08-07T08:24:42;17.67;;;8.93;;
64615;SDS011;51027;42.162;24.754;2022-08-07T08:27:28;17.80;;;8.50;;
64615;SDS011;51027;42.162;24.754;2022-08-07T08:30:01;19.35;;;8.73;;
64615;SDS011;51027;42.162;24.754;2022-08-07T08:32:30;18.05;;;8.60;;
64615;SDS011;51027;42.162;24.754;2022-08-07T08:34:58;18.67;;;8.45;;
64615;SDS011;51027;42.162;24.754;2022-08-07T08:37:28;17.50;;;8.50;;
64615;SDS011;51027;42.162;24.754;2022-08-07T08:39:56;17.70;;;8.88;;
64615;SDS011;51027;42.162;24.754;2022-08-07T08:42:25;16.70;;;8.10;;
64615;SDS011;51027;42.162;24.754;2022-08-07T08:50:28;18.25;;;8.20;;
64615;SDS011;51027;42.162;24.754;2022-08-07T08:53:04;17.45;;;8.32;;
64615;SDS011;51027;42.162;24.754;2022-08-07T08:55:39;18.02;;;8.07;;
64615;SDS011;51027;42.162;24.754;2022-08-07T08:58:18;16.15;;;7.57;;
64615;SDS011;51027;42.162;24.754;2022-08-07T09:00:50;16.40;;;7.53;;
64615;SDS011;51027;42.162;24.754;2022-08-07T09:06:10;17.27;;;6.68;;
64615;SDS011;51027;42.162;24.754;2022-08-07T09:19:27;16.02;;;6.40;;
64615;SDS011;51027;42.162;24.754;2022-08-07T09:22:01;14.70;;;6.15;;
64615;SDS011;51027;42.162;24.754;2022-08-07T09:24:41;14.07;;;5.88;;
64615;SDS011;51027;42.162;24.754;2022-08-07T09:32:43;14.73;;;6.10;;
64615;SDS011;51027;42.162;24.754;2022-08-07T09:38:27;14.90;;;5.55;;
64615;SDS011;51027;42.162;24.754;2022-08-07T09:49:40;14.93;;;5.45;;
64615;SDS011;51027;42.162;24.754;2022-08-07T10:01:07;14.75;;;5.72;;
64615;SDS011;51027;42.162;24.754;2022-08-07T10:12:09;15.85;;;5.10;;
64615;SDS011;51027;42.162;24.754;2022-08-07T10:34:14;12.65;;;5.38;;
64615;SDS011;51027;42.162;24.754;2022-08-07T10:44:23;11.70;;;4.60;;
64615;SDS011;51027;42.162;24.754;2022-08-07T10:46:52;12.65;;;4.75;;
64615;SDS011;51027;42.162;24.754;2022-08-07T10:49:33;12.18;;;4.60;;
64615;SDS011;51027;42.162;24.754;2022-08-07T11:02:39;11.85;;;4.47;;
64615;SDS011;51027;42.162;24.754;2022-08-07T11:08:06;12.27;;;4.32;;
64615;SDS011;51027;42.162;24.754;2022-08-07T11:10:44;12.32;;;4.68;;
64615;SDS011;51027;42.162;24.754;2022-08-07T11:19:00;14.38;;;5.03;;
64615;SDS011;51027;42.162;24.754;2022-08-07T11:21:37;12.90;;;4.57;;
64615;SDS011;51027;42.162;24.754;2022-08-07T11:24:17;14.63;;;5.60;;
64615;SDS011;51027;42.162;24.754;2022-08-07T11:26:48;12.30;;;4.90;;
64615;SDS011;51027;42.162;24.754;2022-08-07T11:29:26;11.20;;;4.68;;
64615;SDS011;51027;42.162;24.754;2022-08-07T11:32:11;14.15;;;5.78;;
64615;SDS011;51027;42.162;24.754;2022-08-07T11:34:49;13.10;;;5.10;;
64615;SDS011;51027;42.162;24.754;2022-08-07T11:51:03;13.68;;;5.30;;
64615;SDS011;51027;42.162;24.754;2022-08-07T11:53:55;12.30;;;4.88;;
64615;SDS011;51027;42.162;24.754;2022-08-07T11:59:27;13.73;;;5.35;;
64615;SDS011;51027;42.162;24.754;2022-08-07T12:10:23;14.27;;;5.93;;
64615;SDS011;51027;42.162;24.754;2022-08-07T12:13:04;14.40;;;6.30;;
64615;SDS011;51027;42.162;24.754;2022-08-07T12:15:39;14.30;;;6.65;;
64615;SDS011;51027;42.162;24.754;2022-08-07T12:20:47;13.52;;;6.45;;
64615;SDS011;51027;42.162;24.754;2022-08-07T12:25:55;19.25;;;7.10;;
64615;SDS011;51027;42.162;24.754;2022-08-07T12:28:27;31.88;;;8.20;;
64615;SDS011;51027;42.162;24.754;2022-08-07T12:31:03;16.38;;;7.20;;
64615;SDS011;51027;42.162;24.754;2022-08-07T12:33:33;15.55;;;6.93;;
64615;SDS011;51027;42.162;24.754;2022-08-07T12:36:00;15.32;;;6.68;;
64615;SDS011;51027;42.162;24.754;2022-08-07T12:38:26;14.50;;;6.68;;
64615;SDS011;51027;42.162;24.754;2022-08-07T12:40:54;18.77;;;6.30;;
64615;SDS011;51027;42.162;24.754;2022-08-07T12:43:22;14.85;;;6.00;;
64615;SDS011;51027;42.162;24.754;2022-08-07T12:51:46;16.08;;;6.20;;
64615;SDS011;51027;42.162;24.754;2022-08-07T12:56:51;14.63;;;6.43;;
64615;SDS011;51027;42.162;24.754;2022-08-07T12:59:19;14.23;;;6.57;;
64615;SDS011;51027;42.162;24.754;2022-08-07T13:02:02;15.73;;;6.80;;
64615;SDS011;51027;42.162;24.754;2022-08-07T13:07:29;16.98;;;7.28;;
64615;SDS011;51027;42.162;24.754;2022-08-07T13:13:06;15.13;;;7.13;;
64615;SDS011;51027;42.162;24.754;2022-08-07T13:15:49;16.92;;;7.47;;
64615;SDS011;51027;42.162;24.754;2022-08-07T13:21:23;15.35;;;8.23;;
64615;SDS011;51027;42.162;24.754;2022-08-07T13:24:06;16.67;;;7.80;;
64615;SDS011;51027;42.162;24.754;2022-08-07T13:26:42;16.45;;;8.25;;
64615;SDS011;51027;42.162;24.754;2022-08-07T13:32:11;17.33;;;7.93;;
64615;SDS011;51027;42.162;24.754;2022-08-07T13:34:55;17.08;;;8.35;;
64615;SDS011;51027;42.162;24.754;2022-08-07T13:40:25;17.67;;;8.63;;
64615;SDS011;51027;42.162;24.754;2022-08-07T13:43:01;19.77;;;8.52;;
64615;SDS011;51027;42.162;24.754;2022-08-07T13:45:31;15.57;;;8.18;;
64615;SDS011;51027;42.162;24.754;2022-08-07T13:47:59;17.42;;;9.02;;
64615;SDS011;51027;42.162;24.754;2022-08-07T13:50:27;17.65;;;9.25;;
64615;SDS011;51027;42.162;24.754;2022-08-07T13:52:54;16.88;;;8.52;;
64615;SDS011;51027;42.162;24.754;2022-08-07T13:55:21;16.83;;;8.77;;
64615;SDS011;51027;42.162;24.754;2022-08-07T13:58:05;18.38;;;9.00;;
64615;SDS011;51027;42.162;24.754;2022-08-07T14:00:52;17.60;;;8.70;;
64615;SDS011;51027;42.162;24.754;2022-08-07T14:03:21;17.73;;;8.57;;
64615;SDS011;51027;42.162;24.754;2022-08-07T14:05:49;16.75;;;8.13;;
64615;SDS011;51027;42.162;24.754;2022-08-07T14:08:23;16.73;;;8.68;;
64615;SDS011;51027;42.162;24.754;2022-08-07T14:10:49;16.85;;;7.97;;
64615;SDS011;51027;42.162;24.754;2022-08-07T14:13:25;16.15;;;7.60;;
64615;SDS011;51027;42.162;24.754;2022-08-07T14:18:31;17.17;;;7.82;;
64615;SDS011;51027;42.162;24.754;2022-08-07T14:21:08;16.65;;;7.32;;
64615;SDS011;51027;42.162;24.754;2022-08-07T14:23:37;19.25;;;9.15;;
64615;SDS011;51027;42.162;24.754;2022-08-07T14:26:11;16.98;;;8.15;;
64615;SDS011;51027;42.162;24.754;2022-08-07T14:28:43;16.17;;;7.90;;
64615;SDS011;51027;42.162;24.754;2022-08-07T14:31:10;17.92;;;8.00;;
64615;SDS011;51027;42.162;24.754;2022-08-07T14:33:37;17.45;;;7.78;;
64615;SDS011;51027;42.162;24.754;2022-08-07T14:36:05;18.02;;;7.53;;
64615;SDS011;51027;42.162;24.754;2022-08-07T14:38:33;17.60;;;7.80;;
64615;SDS011;51027;42.162;24.754;2022-08-07T14:41:00;17.63;;;7.50;;
64615;SDS011;51027;42.162;24.754;2022-08-07T14:43:29;15.10;;;7.22;;
64615;SDS011;51027;42.162;24.754;2022-08-07T14:45:58;17.42;;;7.20;;
64615;SDS011;51027;42.162;24.754;2022-08-07T14:48:25;16.48;;;7.75;;
64615;SDS011;51027;42.162;24.754;2022-08-07T14:50:54;16.90;;;8.25;;
64615;SDS011;51027;42.162;24.754;2022-08-07T14:53:23;15.60;;;7.43;;
64615;SDS011;51027;42.162;24.754;2022-08-07T14:56:04;16.50;;;7.80;;
64615;SDS011;51027;42.162;24.754;2022-08-07T14:58:42;15.98;;;7.15;;
64615;SDS011;51027;42.162;24.754;2022-08-07T15:01:12;16.35;;;7.85;;
64615;SDS011;51027;42.162;24.754;2022-08-07T15:03:41;17.77;;;7.15;;
64615;SDS011;51027;42.162;24.754;2022-08-07T15:06:19;17.25;;;7.93;;
64615;SDS011;51027;42.162;24.754;2022-08-07T15:08:51;15.60;;;7.15;;
64615;SDS011;51027;42.162;24.754;2022-08-07T15:11:20;16.10;;;7.53;;
64615;SDS011;51027;42.162;24.754;2022-08-07T15:20:09;20.83;;;9.95;;
64615;SDS011;51027;42.162;24.754;2022-08-07T15:22:47;16.13;;;7.00;;
64615;SDS011;51027;42.162;24.754;2022-08-07T15:25:17;16.42;;;7.35;;
64615;SDS011;51027;42.162;24.754;2022-08-07T15:27:51;17.63;;;8.10;;
64615;SDS011;51027;42.162;24.754;2022-08-07T15:30:20;15.73;;;7.13;;
64615;SDS011;51027;42.162;24.754;2022-08-07T15:32:52;19.73;;;8.43;;
64615;SDS011;51027;42.162;24.754;2022-08-07T15:35:20;16.80;;;7.60;;
64615;SDS011;51027;42.162;24.754;2022-08-07T15:37:58;18.10;;;8.13;;
64615;SDS011;51027;42.162;24.754;2022-08-07T15:40:35;19.40;;;8.52;;
64615;SDS011;51027;42.162;24.754;2022-08-07T15:43:21;23.45;;;11.30;;
64615;SDS011;51027;42.162;24.754;2022-08-07T15:45:48;19.27;;;8.55;;
64615;SDS011;51027;42.162;24.754;2022-08-07T15:48:34;17.90;;;8.80;;
64615;SDS011;51027;42.162;24.754;2022-08-07T15:51:07;20.05;;;9.57;;
64615;SDS011;51027;42.162;24.754;2022-08-07T15:53:38;18.15;;;8.70;;
64615;SDS011;51027;42.162;24.754;2022-08-07T15:56:07;16.05;;;7.05;;
64615;SDS011;51027;42.162;24.754;2022-08-07T16:01:56;17.27;;;7.18;;
64615;SDS011;51027;42.162;24.754;2022-08-07T16:04:31;15.55;;;6.57;;
64615;SDS011;51027;42.162;24.754;2022-08-07T16:07:00;15.50;;;6.53;;
64615;SDS011;51027;42.162;24.754;2022-08-07T16:19:21;15.27;;;6.85;;
64615;SDS011;51027;42.162;24.754;2022-08-07T16:22:39;16.35;;;7.07;;
64615;SDS011;51027;42.162;24.754;2022-08-07T16:28:25;15.70;;;6.68;;
64615;SDS011;51027;42.162;24.754;2022-08-07T16:33:48;15.27;;;5.97;;
64615;SDS011;51027;42.162;24.754;2022-08-07T17:05:28;14.80;;;6.70;;
64615;SDS011;51027;42.162;24.754;2022-08-07T17:08:06;15.77;;;7.18;;
64615;SDS011;51027;42.162;24.754;2022-08-07T17:21:43;17.42;;;7.93;;
64615;SDS011;51027;42.162;24.754;2022-08-07T17:26:48;18.25;;;8.55;;
64615;SDS011;51027;42.162;24.754;2022-08-07T17:29:30;17.15;;;8.77;;
64615;SDS011;51027;42.162;24.754;2022-08-07T17:32:18;16.50;;;7.90;;
64615;SDS011;51027;42.162;24.754;2022-08-07T17:34:54;16.13;;;7.25;;
64615;SDS011;51027;42.162;24.754;2022-08-07T17:37:29;16.60;;;7.50;;
64615;SDS011;51027;42.162;24.754;2022-08-07T17:42:43;16.48;;;7.72;;
64615;SDS011;51027;42.162;24.754;2022-08-07T17:45:20;15.10;;;7.45;;
64615;SDS011;51027;42.162;24.754;2022-08-07T17:48:09;16.00;;;6.97;;
64615;SDS011;51027;42.162;24.754;2022-08-07T17:50:44;17.83;;;8.93;;
64615;SDS011;51027;42.162;24.754;2022-08-07T17:53:26;18.48;;;8.05;;
64615;SDS011;51027;42.162;24.754;2022-08-07T17:56:13;17.30;;;8.13;;
64615;SDS011;51027;42.162;24.754;2022-08-07T17:59:11;16.40;;;7.88;;
64615;SDS011;51027;42.162;24.754;2022-08-07T18:01:52;16.98;;;7.75;;
64615;SDS011;51027;42.162;24.754;2022-08-07T18:04:46;15.85;;;8.00;;
64615;SDS011;51027;42.162;24.754;2022-08-07T18:07:36;16.88;;;8.52;;
64615;SDS011;51027;42.162;24.754;2022-08-07T18:13:09;17.83;;;9.00;;
64615;SDS011;51027;42.162;24.754;2022-08-07T18:18:24;20.75;;;8.23;;
64615;SDS011;51027;42.162;24.754;2022-08-07T18:20:57;18.33;;;8.70;;
64615;SDS011;51027;42.162;24.754;2022-08-07T18:23:36;16.52;;;7.75;;
64615;SDS011;51027;42.162;24.754;2022-08-07T18:26:11;17.95;;;9.40;;
64615;SDS011;51027;42.162;24.754;2022-08-07T18:37:01;20.35;;;9.98;;
64615;SDS011;51027;42.162;24.754;2022-08-07T18:50:33;19.25;;;9.52;;
64615;SDS011;51027;42.162;24.754;2022-08-07T19:01:30;18.77;;;8.77;;
64615;SDS011;51027;42.162;24.754;2022-08-07T19:09:02;18.55;;;9.05;;
64615;SDS011;51027;42.162;24.754;2022-08-07T19:12:16;21.63;;;10.95;;
64615;SDS011;51027;42.162;24.754;2022-08-07T19:20:26;21.40;;;10.98;;
64615;SDS011;51027;42.162;24.754;2022-08-07T19:23:00;22.63;;;11.38;;
64615;SDS011;51027;42.162;24.754;2022-08-07T19:25:33;20.52;;;10.63;;
64615;SDS011;51027;42.162;24.754;2022-08-07T19:28:05;18.42;;;8.98;;
64615;SDS011;51027;42.162;24.754;2022-08-07T19:30:34;19.90;;;8.63;;
64615;SDS011;51027;42.162;24.754;2022-08-07T19:33:04;18.20;;;8.93;;
64615;SDS011;51027;42.162;24.754;2022-08-07T19:35:31;19.27;;;9.00;;
64615;SDS011;51027;42.162;24.754;2022-08-07T19:37:57;17.95;;;8.68;;
64615;SDS011;51027;42.162;24.754;2022-08-07T19:40:28;19.40;;;9.65;;
64615;SDS011;51027;42.162;24.754;2022-08-07T19:43:07;18.13;;;8.90;;
64615;SDS011;51027;42.162;24.754;2022-08-07T19:45:37;18.45;;;9.30;;
64615;SDS011;51027;42.162;24.754;2022-08-07T19:48:07;17.35;;;8.90;;
64615;SDS011;51027;42.162;24.754;2022-08-07T19:50:36;18.33;;;8.23;;
64615;SDS011;51027;42.162;24.754;2022-08-07T19:53:10;17.42;;;8.05;;
64615;SDS011;51027;42.162;24.754;2022-08-07T19:55:40;17.55;;;8.52;;
64615;SDS011;51027;42.162;24.754;2022-08-07T19:58:08;17.75;;;8.20;;
64615;SDS011;51027;42.162;24.754;2022-08-07T20:00:38;18.55;;;8.23;;
64615;SDS011;51027;42.162;24.754;2022-08-07T20:03:15;18.20;;;7.97;;
64615;SDS011;51027;42.162;24.754;2022-08-07T20:05:44;17.25;;;8.35;;
64615;SDS011;51027;42.162;24.754;2022-08-07T20:08:18;16.85;;;8.13;;
64615;SDS011;51027;42.162;24.754;2022-08-07T20:10:47;15.95;;;7.57;;
64615;SDS011;51027;42.162;24.754;2022-08-07T20:13:21;18.08;;;7.88;;
64615;SDS011;51027;42.162;24.754;2022-08-07T20:15:52;16.30;;;8.15;;
64615;SDS011;51027;42.162;24.754;2022-08-07T20:18:22;17.02;;;7.72;;
64615;SDS011;51027;42.162;24.754;2022-08-07T20:20:49;17.58;;;7.75;;
64615;SDS011;51027;42.162;24.754;2022-08-07T20:23:20;16.45;;;8.10;;
64615;SDS011;51027;42.162;24.754;2022-08-07T20:25:45;18.73;;;8.00;;
64615;SDS011;51027;42.162;24.754;2022-08-07T20:28:11;18.50;;;8.07;;
64615;SDS011;51027;42.162;24.754;2022-08-07T20:30:43;15.48;;;7.68;;
64615;SDS011;51027;42.162;24.754;2022-08-07T20:33:11;18.25;;;8.32;;
64615;SDS011;51027;42.162;24.754;2022-08-07T20:35:44;16.77;;;7.60;;
64615;SDS011;51027;42.162;24.754;2022-08-07T20:38:13;17.48;;;7.45;;
64615;SDS011;51027;42.162;24.754;2022-08-07T20:40:54;16.90;;;7.80;;
64615;SDS011;51027;42.162;24.754;2022-08-07T20:43:25;18.27;;;8.32;;
64615;SDS011;51027;42.162;24.754;2022-08-07T20:45:54;20.00;;;10.50;;
64615;SDS011;51027;42.162;24.754;2022-08-07T20:48:21;18.98;;;9.18;;
64615;SDS011;51027;42.162;24.754;2022-08-07T20:51:01;17.92;;;8.27;;
64615;SDS011;51027;42.162;24.754;2022-08-07T20:53:31;20.05;;;8.55;;
64615;SDS011;51027;42.162;24.754;2022-08-07T20:56:01;17.50;;;8.50;;
64615;SDS011;51027;42.162;24.754;2022-08-07T20:58:31;18.00;;;8.50;;
64615;SDS011;51027;42.162;24.754;2022-08-07T21:01:09;19.00;;;9.55;;
64615;SDS011;51027;42.162;24.754;2022-08-07T21:03:41;18.95;;;9.93;;
64615;SDS011;51027;42.162;24.754;2022-08-07T21:06:09;18.13;;;9.48;;
64615;SDS011;51027;42.162;24.754;2022-08-07T21:08:45;17.60;;;8.85;;
64615;SDS011;51027;42.162;24.754;2022-08-07T21:11:29;17.92;;;8.90;;
64615;SDS011;51027;42.162;24.754;2022-08-07T21:13:58;21.38;;;9.80;;